createdAt,value
2019-03-20T00:00:36.799Z,0.90
2019-03-20T00:03:05.519Z,1.15
2019-03-20T00:05:34.004Z,1.30
2019-03-20T00:08:02.506Z,0.70
2019-03-20T00:10:30.926Z,1.15
2019-03-20T00:12:59.389Z,0.80
2019-03-20T00:15:27.818Z,0.93
2019-03-20T00:17:56.292Z,0.93
2019-03-20T00:20:24.728Z,0.80
2019-03-20T00:22:53.152Z,0.60
2019-03-20T00:25:21.639Z,0.90
2019-03-20T00:27:50.602Z,0.82
2019-03-20T00:30:20.350Z,1.02
2019-03-20T00:32:49.027Z,1.47
2019-03-20T00:35:17.605Z,1.57
2019-03-20T00:37:46.008Z,1.47
2019-03-20T00:40:16.082Z,1.50
2019-03-20T00:42:44.547Z,1.42
2019-03-20T00:45:21.907Z,1.35
2019-03-20T00:47:50.655Z,1.00
2019-03-20T00:50:19.944Z,1.32
2019-03-20T00:52:48.549Z,1.30
2019-03-20T00:55:17.730Z,1.22
2019-03-20T00:57:46.356Z,1.00
2019-03-20T01:00:22.246Z,1.02
2019-03-20T01:02:50.927Z,1.00
2019-03-20T01:05:20.440Z,1.35
2019-03-20T01:07:48.981Z,0.88
2019-03-20T01:10:25.266Z,1.20
2019-03-20T01:12:53.882Z,0.70
2019-03-20T01:15:22.503Z,1.27
2019-03-20T01:17:50.931Z,1.30
2019-03-20T01:20:20.507Z,1.00
2019-03-20T01:22:49.007Z,1.00
2019-03-20T01:25:18.736Z,1.45
2019-03-20T01:27:47.295Z,1.20
2019-03-20T01:30:33.496Z,1.50
2019-03-20T01:33:04.092Z,1.00
2019-03-20T01:35:32.710Z,1.32
2019-03-20T01:38:01.190Z,1.02
2019-03-20T01:40:29.665Z,1.05
2019-03-20T01:42:58.208Z,1.25
2019-03-20T01:45:26.840Z,0.70
2019-03-20T01:47:55.397Z,0.80
2019-03-20T01:50:23.924Z,0.80
2019-03-20T01:52:52.424Z,0.70
2019-03-20T01:55:20.866Z,0.78
2019-03-20T01:57:49.295Z,0.85
2019-03-20T02:00:17.726Z,0.72
2019-03-20T02:02:46.173Z,0.80
2019-03-20T02:05:14.882Z,0.72
2019-03-20T02:07:43.316Z,0.98
2019-03-20T02:10:15.780Z,1.10
2019-03-20T02:12:44.308Z,1.20
2019-03-20T02:15:15.845Z,0.90
2019-03-20T02:17:44.378Z,1.00
2019-03-20T02:20:15.389Z,1.05
2019-03-20T02:22:43.901Z,0.70
2019-03-20T02:25:13.788Z,1.05
2019-03-20T02:27:42.256Z,0.80
2019-03-20T02:30:18.457Z,0.70
2019-03-20T02:32:46.880Z,1.32
2019-03-20T02:35:15.487Z,0.90
2019-03-20T02:37:44.884Z,1.00
2019-03-20T02:40:15.314Z,0.70
2019-03-20T02:42:44.004Z,0.80
2019-03-20T02:45:16.335Z,1.00
2019-03-20T02:47:44.800Z,1.10
2019-03-20T02:50:17.148Z,1.20
2019-03-20T02:52:45.597Z,0.72
2019-03-20T02:55:14.203Z,0.98
2019-03-20T02:57:42.628Z,1.40
2019-03-20T03:00:18.782Z,1.17
2019-03-20T03:02:47.238Z,1.47
2019-03-20T03:05:16.692Z,1.10
2019-03-20T03:07:45.151Z,0.93
2019-03-20T03:10:18.335Z,1.22
2019-03-20T03:12:46.831Z,0.65
2019-03-20T03:15:16.177Z,0.82
2019-03-20T03:17:44.852Z,1.35
2019-03-20T03:20:14.639Z,0.90
2019-03-20T03:22:43.090Z,1.37
2019-03-20T03:25:12.645Z,1.10
2019-03-20T03:27:41.088Z,0.80
2019-03-20T03:30:17.253Z,1.00
2019-03-20T03:32:45.870Z,1.12
2019-03-20T03:35:17.869Z,1.07
2019-03-20T03:37:44.651Z,0.85
2019-03-20T03:40:15.428Z,1.57
2019-03-20T03:42:43.924Z,0.80
2019-03-20T03:45:16.158Z,0.85
2019-03-20T03:47:44.871Z,0.93
2019-03-20T03:50:13.486Z,0.70
2019-03-20T03:52:41.921Z,0.70
2019-03-20T03:55:11.895Z,0.80
2019-03-20T03:57:40.390Z,0.75
2019-03-20T04:00:11.882Z,0.80
2019-03-20T04:02:40.346Z,1.20
2019-03-20T04:05:09.372Z,0.70
2019-03-20T04:07:37.793Z,0.70
2019-03-20T04:10:09.320Z,0.72
2019-03-20T04:12:37.832Z,1.02
2019-03-20T04:15:09.405Z,1.05
2019-03-20T04:17:37.915Z,1.10
2019-03-20T04:20:09.391Z,0.90
2019-03-20T04:22:37.816Z,0.90
2019-03-20T04:25:07.820Z,0.68
2019-03-20T04:27:36.245Z,1.10
2019-03-20T04:30:07.797Z,1.05
2019-03-20T04:32:36.219Z,1.00
2019-03-20T04:35:05.463Z,1.00
2019-03-20T04:37:34.108Z,0.88
2019-03-20T04:40:02.544Z,1.98
2019-03-20T04:42:30.980Z,1.00
2019-03-20T04:44:59.431Z,1.02
2019-03-20T04:47:28.106Z,1.00
2019-03-20T04:49:56.559Z,0.90
2019-03-20T04:52:24.996Z,1.12
2019-03-20T04:54:53.430Z,0.90
2019-03-20T04:57:21.882Z,1.25
2019-03-20T04:59:50.360Z,0.93
2019-03-20T05:02:18.779Z,1.75
2019-03-20T05:04:47.281Z,1.20
2019-03-20T05:07:15.691Z,1.00
2019-03-20T05:09:44.172Z,1.15
2019-03-20T05:12:12.638Z,1.37
2019-03-20T05:14:41.119Z,1.12
2019-03-20T05:17:09.565Z,0.93
2019-03-20T05:19:37.977Z,1.17
2019-03-20T05:22:06.442Z,1.20
2019-03-20T05:24:34.875Z,1.30
2019-03-20T05:27:03.356Z,1.20
2019-03-20T05:29:31.835Z,2.20
2019-03-20T05:32:00.385Z,1.27
2019-03-20T05:34:28.969Z,1.20
2019-03-20T05:36:57.444Z,1.20
2019-03-20T05:39:25.919Z,1.05
2019-03-20T05:41:54.417Z,1.35
2019-03-20T05:44:22.932Z,1.10
2019-03-20T05:46:51.419Z,1.37
2019-03-20T05:49:19.907Z,1.20
2019-03-20T05:51:48.379Z,1.02
2019-03-20T05:54:16.818Z,1.10
2019-03-20T05:56:45.314Z,1.00
2019-03-20T05:59:13.795Z,1.37
2019-03-20T06:01:42.238Z,1.12
2019-03-20T06:04:10.685Z,1.22
2019-03-20T06:06:39.123Z,1.12
2019-03-20T06:09:07.839Z,1.22
2019-03-20T06:11:36.217Z,1.60
2019-03-20T06:14:05.419Z,1.65
2019-03-20T06:16:33.876Z,2.62
2019-03-20T06:19:02.322Z,2.20
2019-03-20T06:21:30.758Z,2.20
2019-03-20T06:23:59.229Z,1.62
2019-03-20T06:26:27.562Z,2.52
2019-03-20T06:28:56.076Z,2.00
2019-03-20T06:31:24.702Z,2.67
2019-03-20T06:33:53.133Z,3.30
2019-03-20T06:36:21.694Z,2.12
2019-03-20T06:38:50.260Z,1.80
2019-03-20T06:41:18.708Z,2.10
2019-03-20T06:43:47.142Z,2.10
2019-03-20T06:46:15.582Z,2.52
2019-03-20T06:48:44.019Z,2.02
2019-03-20T06:51:12.453Z,2.22
2019-03-20T06:53:40.891Z,2.15
2019-03-20T06:56:09.365Z,2.67
2019-03-20T06:58:37.791Z,3.90
2019-03-20T07:01:18.403Z,2.83
2019-03-20T07:03:55.653Z,3.30
2019-03-20T07:06:32.480Z,2.12
2019-03-20T07:09:18.385Z,2.58
2019-03-20T07:11:47.564Z,1.82
2019-03-20T07:14:16.012Z,2.02
2019-03-20T07:16:44.446Z,3.08
2019-03-20T07:19:12.927Z,2.50
2019-03-20T07:21:41.394Z,2.58
2019-03-20T07:24:09.863Z,2.80
2019-03-20T07:26:38.295Z,2.50
2019-03-20T07:29:06.780Z,1.95
2019-03-20T07:31:35.242Z,2.20
2019-03-20T07:34:03.686Z,2.75
2019-03-20T07:36:32.147Z,2.37
2019-03-20T07:39:00.598Z,3.08
2019-03-20T07:41:29.112Z,2.55
2019-03-20T07:43:57.542Z,2.75
2019-03-20T07:46:25.978Z,3.15
2019-03-20T07:48:54.431Z,4.10
2019-03-20T07:51:22.877Z,2.62
2019-03-20T07:53:51.311Z,4.35
2019-03-20T07:56:19.943Z,2.40
2019-03-20T07:58:48.441Z,2.75
2019-03-20T08:01:16.923Z,3.22
2019-03-20T08:03:45.358Z,2.12
2019-03-20T08:06:13.970Z,2.40
2019-03-20T08:08:42.761Z,2.30
2019-03-20T08:11:11.196Z,2.42
2019-03-20T08:13:39.757Z,2.22
2019-03-20T08:16:08.191Z,3.35
2019-03-20T08:18:36.637Z,3.65
2019-03-20T08:21:05.134Z,2.40
2019-03-20T08:23:33.695Z,2.70
2019-03-20T08:26:02.092Z,2.85
2019-03-20T08:28:30.518Z,3.33
2019-03-20T08:30:58.986Z,3.58
2019-03-20T08:33:27.448Z,3.15
2019-03-20T08:35:55.893Z,6.12
2019-03-20T08:38:24.355Z,4.50
2019-03-20T08:40:52.781Z,3.00
2019-03-20T08:43:21.237Z,3.75
2019-03-20T08:45:49.717Z,1.90
2019-03-20T08:48:18.151Z,3.98
2019-03-20T08:50:46.576Z,2.87
2019-03-20T08:53:14.999Z,3.17
2019-03-20T08:55:43.460Z,4.37
2019-03-20T08:58:11.890Z,2.72
2019-03-20T09:00:40.419Z,3.05
2019-03-20T09:03:08.847Z,1.87
2019-03-20T09:05:37.294Z,3.12
2019-03-20T09:08:05.742Z,2.27
2019-03-20T09:10:34.226Z,2.17
2019-03-20T09:13:02.731Z,3.05
2019-03-20T09:15:31.126Z,2.12
2019-03-20T09:17:59.584Z,2.30
2019-03-20T09:20:28.025Z,3.42
2019-03-20T09:22:56.510Z,2.58
2019-03-20T09:25:26.756Z,1.92
2019-03-20T09:27:55.152Z,2.12
2019-03-20T09:30:24.643Z,2.42
2019-03-20T09:32:53.095Z,1.90
2019-03-20T09:35:21.637Z,2.52
2019-03-20T09:37:52.215Z,4.62
2019-03-20T09:40:25.032Z,3.20
2019-03-20T09:42:53.658Z,3.22
2019-03-20T09:45:23.009Z,3.67
2019-03-20T09:47:51.438Z,2.80
2019-03-20T09:50:24.079Z,2.67
2019-03-20T09:52:52.820Z,2.25
2019-03-20T09:55:21.278Z,3.17
2019-03-20T09:57:50.029Z,3.12
2019-03-20T10:00:25.588Z,3.00
2019-03-20T10:02:54.422Z,2.50
2019-03-20T10:05:22.971Z,2.22
2019-03-20T10:07:51.666Z,2.10
2019-03-20T10:10:24.180Z,2.52
2019-03-20T10:12:52.981Z,3.00
2019-03-20T10:15:26.484Z,2.50
2019-03-20T10:17:54.922Z,2.85
2019-03-20T10:20:23.910Z,2.25
2019-03-20T10:22:52.602Z,2.58
2019-03-20T10:25:21.049Z,2.25
2019-03-20T10:27:51.839Z,1.95
2019-03-20T10:30:27.305Z,2.77
2019-03-20T10:32:55.889Z,3.92
2019-03-20T10:35:24.338Z,3.25
2019-03-20T10:37:52.951Z,2.40
2019-03-20T10:40:24.810Z,2.95
2019-03-20T10:42:53.267Z,3.55
2019-03-20T10:45:22.262Z,3.40
2019-03-20T10:47:52.950Z,3.08
2019-03-20T10:50:25.198Z,2.80
2019-03-20T10:52:53.831Z,3.75
2019-03-20T10:55:22.557Z,3.08
2019-03-20T10:57:50.991Z,1.90
2019-03-20T11:00:23.293Z,3.17
2019-03-20T11:02:52.079Z,2.52
2019-03-20T11:05:20.994Z,2.17
2019-03-20T11:07:49.781Z,2.77
2019-03-20T11:10:28.197Z,3.02
2019-03-20T11:12:56.771Z,1.55
2019-03-20T11:15:26.337Z,1.67
2019-03-20T11:17:54.830Z,4.35
2019-03-20T11:20:24.515Z,3.15
2019-03-20T11:22:53.142Z,3.33
2019-03-20T11:25:28.479Z,2.52
2019-03-20T11:27:57.024Z,1.92
2019-03-20T11:30:30.125Z,1.40
2019-03-20T11:32:58.815Z,2.95
2019-03-20T11:35:27.696Z,2.83
2019-03-20T11:37:56.192Z,1.95
2019-03-20T11:40:35.502Z,2.50
2019-03-20T11:43:04.331Z,1.62
2019-03-20T11:45:32.862Z,2.20
2019-03-20T11:48:01.310Z,2.60
2019-03-20T11:50:40.783Z,2.25
2019-03-20T11:53:09.954Z,1.52
2019-03-20T11:55:38.729Z,1.50
2019-03-20T11:58:07.796Z,1.57
2019-03-20T12:00:36.424Z,2.30
2019-03-20T12:03:05.537Z,2.22
2019-03-20T12:05:33.966Z,1.98
2019-03-20T12:08:02.517Z,2.60
2019-03-20T12:10:32.201Z,1.65
2019-03-20T12:13:00.707Z,2.17
2019-03-20T12:15:29.914Z,1.65
2019-03-20T12:17:58.399Z,2.02
2019-03-20T12:20:26.935Z,2.30
2019-03-20T12:22:55.364Z,1.62
2019-03-20T12:25:29.220Z,1.62
2019-03-20T12:27:57.832Z,1.10
2019-03-20T12:30:31.825Z,1.32
2019-03-20T12:33:00.270Z,1.47
2019-03-20T12:35:34.380Z,1.65
2019-03-20T12:38:13.644Z,2.67
2019-03-20T12:40:33.146Z,2.12
2019-03-20T12:43:01.768Z,2.08
2019-03-20T12:45:37.042Z,1.72
2019-03-20T12:48:07.446Z,2.70
2019-03-20T12:50:35.944Z,2.30
2019-03-20T12:53:05.449Z,1.30
2019-03-20T12:55:34.062Z,1.72
2019-03-20T12:58:02.571Z,1.22
2019-03-20T13:00:31.202Z,1.42
2019-03-20T13:02:59.631Z,1.32
2019-03-20T13:05:28.787Z,1.52
2019-03-20T13:08:05.345Z,2.40
2019-03-20T13:10:28.234Z,1.80
2019-03-20T13:12:56.766Z,1.45
2019-03-20T13:15:29.094Z,3.35
2019-03-20T13:17:58.022Z,1.60
2019-03-20T13:20:26.829Z,1.80
2019-03-20T13:23:06.989Z,1.92
2019-03-20T13:25:35.490Z,2.42
2019-03-20T13:28:04.157Z,2.52
2019-03-20T13:30:39.071Z,2.00
2019-03-20T13:33:07.567Z,1.70
2019-03-20T13:35:36.010Z,2.33
2019-03-20T13:38:04.551Z,3.45
2019-03-20T13:40:32.977Z,2.30
2019-03-20T13:43:01.436Z,2.00
2019-03-20T13:45:29.962Z,2.55
2019-03-20T13:47:58.464Z,2.35
2019-03-20T13:50:27.028Z,1.87
2019-03-20T13:52:55.504Z,2.20
2019-03-20T13:55:23.966Z,2.20
2019-03-20T13:57:52.539Z,2.12
2019-03-20T14:00:27.522Z,2.27
2019-03-20T14:02:55.962Z,1.90
2019-03-20T14:05:24.480Z,2.45
2019-03-20T14:07:53.088Z,1.75
2019-03-20T14:10:25.941Z,2.85
2019-03-20T14:12:54.674Z,2.25
2019-03-20T14:15:23.117Z,2.37
2019-03-20T14:17:52.027Z,2.55
2019-03-20T14:20:26.377Z,3.20
2019-03-20T14:22:54.993Z,2.20
2019-03-20T14:25:23.811Z,1.47
2019-03-20T14:27:52.897Z,1.77
2019-03-20T14:30:27.313Z,2.02
2019-03-20T14:32:56.134Z,1.85
2019-03-20T14:35:24.842Z,1.52
2019-03-20T14:37:53.643Z,2.05
2019-03-20T14:40:36.071Z,1.98
2019-03-20T14:43:00.185Z,1.65
2019-03-20T14:45:28.654Z,2.10
2019-03-20T14:47:57.082Z,1.20
2019-03-20T14:50:26.686Z,1.40
2019-03-20T14:52:55.301Z,1.55
2019-03-20T14:55:24.639Z,2.30
2019-03-20T14:57:53.685Z,2.17
2019-03-20T15:00:30.038Z,2.10
2019-03-20T15:02:58.632Z,1.30
2019-03-20T15:05:27.185Z,1.20
2019-03-20T15:07:55.671Z,1.80
2019-03-20T15:10:27.765Z,1.62
2019-03-20T15:12:56.841Z,1.00
2019-03-20T15:15:43.570Z,0.95
2019-03-20T15:18:12.052Z,0.90
2019-03-20T15:20:40.494Z,1.20
2019-03-20T15:23:08.934Z,1.17
2019-03-20T15:25:37.467Z,1.50
2019-03-20T15:28:05.981Z,1.57
2019-03-20T15:30:34.446Z,1.07
2019-03-20T15:33:02.905Z,1.15
2019-03-20T15:35:31.335Z,0.90
2019-03-20T15:37:59.896Z,0.95
2019-03-20T15:40:30.246Z,1.70
2019-03-20T15:42:58.692Z,1.67
2019-03-20T15:45:27.201Z,1.35
2019-03-20T15:47:55.947Z,1.10
2019-03-20T15:50:28.126Z,1.07
2019-03-20T15:52:56.597Z,0.90
2019-03-20T15:55:33.073Z,1.65
2019-03-20T15:58:01.778Z,1.27
2019-03-20T16:00:30.216Z,1.25
2019-03-20T16:03:18.281Z,1.35
2019-03-20T16:05:46.820Z,0.90
2019-03-20T16:08:15.220Z,1.82
2019-03-20T16:10:43.790Z,1.30
2019-03-20T16:13:12.293Z,1.17
2019-03-20T16:15:40.774Z,0.78
2019-03-20T16:18:09.297Z,1.37
2019-03-20T16:20:37.835Z,1.70
2019-03-20T16:23:06.292Z,1.40
2019-03-20T16:25:35.123Z,1.10
2019-03-20T16:28:03.583Z,1.50
2019-03-20T16:30:32.889Z,1.17
2019-03-20T16:33:01.365Z,0.90
2019-03-20T16:35:29.819Z,1.20
2019-03-20T16:37:58.268Z,1.17
2019-03-20T16:40:28.352Z,0.95
2019-03-20T16:42:56.775Z,1.22
2019-03-20T16:45:33.435Z,2.17
2019-03-20T16:48:01.973Z,1.07
2019-03-20T16:50:30.433Z,0.75
2019-03-20T16:52:58.913Z,1.12
2019-03-20T16:55:27.455Z,0.80
2019-03-20T16:57:55.946Z,0.72
2019-03-20T17:00:32.089Z,1.30
2019-03-20T17:03:00.644Z,2.17
2019-03-20T17:05:30.116Z,1.40
2019-03-20T17:07:58.618Z,1.10
2019-03-20T17:10:39.002Z,1.20
2019-03-20T17:13:07.432Z,0.88
2019-03-20T17:15:41.210Z,1.72
2019-03-20T17:18:09.740Z,0.80
2019-03-20T17:20:38.199Z,0.90
2019-03-20T17:23:07.890Z,1.10
2019-03-20T17:25:36.855Z,0.85
2019-03-20T17:28:05.631Z,0.90
2019-03-20T17:30:38.770Z,0.75
2019-03-20T17:33:07.948Z,0.90
2019-03-20T17:35:36.395Z,0.80
2019-03-20T17:38:05.462Z,1.17
2019-03-20T17:40:33.918Z,1.10
2019-03-20T17:43:02.645Z,0.95
2019-03-20T17:45:32.220Z,1.37
2019-03-20T17:48:00.813Z,1.72
2019-03-20T17:50:35.873Z,1.70
2019-03-20T17:53:06.175Z,1.37
2019-03-20T17:55:34.635Z,1.15
2019-03-20T17:58:03.183Z,1.55
2019-03-20T18:00:46.143Z,1.87
2019-03-20T18:03:16.231Z,1.60
2019-03-20T18:05:44.646Z,1.20
2019-03-20T18:08:13.112Z,1.32
2019-03-20T18:10:41.596Z,1.85
2019-03-20T18:13:10.119Z,2.10
2019-03-20T18:15:38.741Z,1.47
2019-03-20T18:18:08.004Z,1.20
2019-03-20T18:20:37.280Z,1.02
2019-03-20T18:23:06.469Z,1.47
2019-03-20T18:25:34.946Z,1.27
2019-03-20T18:28:03.399Z,1.50
2019-03-20T18:30:42.873Z,1.20
2019-03-20T18:33:11.381Z,1.27
2019-03-20T18:35:39.830Z,1.90
2019-03-20T18:38:08.650Z,1.90
2019-03-20T18:40:37.124Z,1.47
2019-03-20T18:43:06.155Z,2.40
2019-03-20T18:45:34.771Z,1.87
2019-03-20T18:48:03.269Z,1.50
2019-03-20T18:50:31.871Z,2.10
2019-03-20T18:53:00.316Z,1.50
2019-03-20T18:55:28.751Z,2.52
2019-03-20T18:57:57.196Z,1.72
2019-03-20T19:00:27.958Z,1.35
2019-03-20T19:03:02.027Z,2.30
2019-03-20T19:05:50.456Z,2.55
2019-03-20T19:08:18.901Z,2.58
2019-03-20T19:10:47.830Z,2.40
2019-03-20T19:13:16.301Z,2.05
2019-03-20T19:15:44.836Z,2.17
2019-03-20T19:18:13.277Z,2.00
2019-03-20T19:20:42.023Z,2.37
2019-03-20T19:23:10.554Z,3.65
2019-03-20T19:25:39.031Z,3.02
2019-03-20T19:28:07.493Z,2.60
2019-03-20T19:30:36.010Z,2.05
2019-03-20T19:33:05.227Z,2.45
2019-03-20T19:35:33.678Z,1.95
2019-03-20T19:38:02.139Z,1.50
2019-03-20T19:40:30.641Z,2.17
2019-03-20T19:42:59.334Z,1.90
2019-03-20T19:45:27.799Z,2.05
2019-03-20T19:47:56.241Z,2.65
2019-03-20T19:50:25.162Z,2.47
2019-03-20T19:52:54.012Z,3.20
2019-03-20T19:55:22.465Z,3.00
2019-03-20T19:57:50.925Z,2.50
2019-03-20T20:00:26.495Z,2.02
2019-03-20T20:02:55.110Z,2.10
2019-03-20T20:05:23.607Z,1.85
2019-03-20T20:07:52.063Z,1.65
2019-03-20T20:10:20.937Z,1.57
2019-03-20T20:12:49.470Z,2.47
2019-03-20T20:15:34.453Z,1.95
2019-03-20T20:18:03.032Z,1.87
2019-03-20T20:20:39.869Z,2.00
2019-03-20T20:23:08.319Z,2.50
2019-03-20T20:25:36.753Z,2.12
2019-03-20T20:28:05.373Z,2.05
2019-03-20T20:30:35.351Z,2.80
2019-03-20T20:33:04.367Z,2.33
2019-03-20T20:35:32.846Z,2.77
2019-03-20T20:38:01.300Z,1.62
2019-03-20T20:40:30.623Z,1.80
2019-03-20T20:42:59.080Z,1.60
2019-03-20T20:45:27.522Z,2.33
2019-03-20T20:47:55.984Z,1.80
2019-03-20T20:50:24.664Z,2.30
2019-03-20T20:52:53.280Z,2.10
2019-03-20T20:55:22.834Z,1.82
2019-03-20T20:57:51.409Z,1.98
2019-03-20T21:00:23.280Z,1.82
2019-03-20T21:02:53.528Z,1.82
2019-03-20T21:05:22.054Z,2.60
2019-03-20T21:07:50.524Z,1.55
2019-03-20T21:10:25.689Z,1.95
2019-03-20T21:12:57.154Z,2.00
2019-03-20T21:15:35.357Z,2.85
2019-03-20T21:18:15.599Z,2.55
2019-03-20T21:20:48.834Z,2.20
2019-03-20T21:23:39.657Z,2.00
2019-03-20T21:26:10.246Z,2.25
2019-03-20T21:29:15.127Z,1.87
2019-03-20T21:31:55.554Z,1.40
2019-03-20T21:34:56.001Z,2.12
2019-03-20T21:37:39.274Z,1.95
2019-03-20T21:40:10.264Z,2.20
2019-03-20T21:42:51.980Z,1.80
2019-03-20T21:45:40.992Z,1.90
2019-03-20T21:48:09.571Z,1.87
2019-03-20T21:50:57.334Z,1.92
2019-03-20T21:53:48.642Z,1.80
2019-03-20T21:56:28.692Z,3.08
2019-03-20T21:59:20.691Z,2.12
2019-03-20T22:02:11.655Z,2.55
2019-03-20T22:04:40.188Z,2.40
2019-03-20T22:07:11.209Z,2.83
2019-03-20T22:09:54.638Z,2.50
2019-03-20T22:12:35.523Z,3.22
2019-03-20T22:15:15.866Z,7.50
2019-03-20T22:18:02.333Z,3.33
2019-03-20T22:20:46.222Z,2.95
2019-03-20T22:23:20.632Z,2.47
2019-03-20T22:26:13.896Z,3.27
2019-03-20T22:29:01.670Z,2.87
2019-03-20T22:31:33.135Z,3.52
2019-03-20T22:34:40.074Z,3.83
2019-03-20T22:37:08.533Z,4.45
2019-03-20T22:39:58.077Z,3.55
2019-03-20T22:42:46.043Z,3.55
2019-03-20T22:45:32.448Z,3.22
2019-03-20T22:48:26.840Z,2.98
2019-03-20T22:51:07.587Z,5.53
2019-03-20T22:53:55.643Z,4.67
2019-03-20T22:56:42.302Z,3.87
2019-03-20T22:59:10.760Z,3.08
2019-03-20T23:01:42.279Z,3.12
2019-03-20T23:04:19.409Z,4.03
2019-03-20T23:06:47.959Z,3.12
2019-03-20T23:09:17.505Z,3.75
2019-03-20T23:11:45.948Z,3.17
2019-03-20T23:14:14.395Z,4.75
2019-03-20T23:16:42.878Z,3.52
2019-03-20T23:19:11.327Z,4.12
2019-03-20T23:21:40.136Z,3.22
2019-03-20T23:24:08.599Z,5.20
2019-03-20T23:26:37.039Z,4.15
2019-03-20T23:29:05.520Z,3.50
2019-03-20T23:31:33.979Z,3.20
2019-03-20T23:34:02.423Z,4.80
2019-03-20T23:36:31.503Z,2.42
2019-03-20T23:38:59.929Z,3.75
2019-03-20T23:41:28.372Z,2.90
2019-03-20T23:43:56.852Z,3.17
2019-03-20T23:46:25.333Z,3.37
2019-03-20T23:48:59.776Z,3.08
2019-03-20T23:51:30.349Z,4.78
2019-03-20T23:53:59.445Z,2.83
2019-03-20T23:56:31.152Z,2.70
2019-03-20T23:58:59.602Z,2.62
